< < Back
Terminal Aerodrome Forecast


Current Version              Previous Versions:   1  2  3  4  5  6  7  8  9  

Terminal Aerodrome Forecast

972
FTUS44 KBMX 221700
TAFTCL
TAF
KTCL 221726Z 2218/2318 02008KT P6SM SKC
     FM230000 00000KT P6SM SKC=



Latest METAR

538
SAUS70 KWBC 231100 RRD
MTRTCL
METAR KTCL 231053Z AUTO 00000KT 10SM CLR 06/04 A3016 RMK AO2 SLP212
T00610044


USA.gov is the U.S. government's official web portal to all federal, state and local government web resources and services.